Time;durP1;ratioP1;P1;durP2;ratioP2;P2;SDS_P1;SDS_P2;PMS_P1;PMS_P2;Temp;Humidity;BMP_temperature;BMP_pressure;BME280_temperature;BME280_humidity;BME280_pressure;Samples;Min_cycle;Max_cycle;Signal;HPM_P1;HPM_P2
2021/06/05 00:00:41;;;;;;;3.80;3.40;;;;;;;15.98;84.12;100888.34;5078466;28;20370;-66
2021/06/05 00:03:07;;;;;;;6.07;3.30;;;;;;;15.97;84.14;100872.13;5078551;28;20107;-65
2021/06/05 00:05:41;;;;;;;4.90;3.30;;;;;;;16.01;83.75;100892.41;5075700;28;20077;-66
2021/06/05 00:08:08;;;;;;;6.10;3.35;;;;;;;15.81;84.13;100869.63;5076835;28;20081;-65
2021/06/05 00:10:38;;;;;;;4.13;2.88;;;;;;;15.84;83.79;100868.22;5064094;28;20068;-66
2021/06/05 00:13:07;;;;;;;6.07;3.00;;;;;;;15.94;83.76;100890.06;5075848;28;20024;-65
2021/06/05 00:15:40;;;;;;;5.10;3.10;;;;;;;15.93;83.76;100882.13;5064336;28;20071;-65
2021/06/05 00:18:05;;;;;;;6.43;3.28;;;;;;;15.86;83.77;100879.75;5067883;28;20128;-65
2021/06/05 00:20:33;;;;;;;5.18;3.00;;;;;;;15.74;83.77;100863.72;5084934;28;20024;-67
2021/06/05 00:23:00;;;;;;;5.22;3.40;;;;;;;15.78;83.62;100870.25;5077688;28;20051;-65
2021/06/05 00:25:28;;;;;;;3.75;3.10;;;;;;;15.87;83.66;100876.69;5072924;28;20025;-65
2021/06/05 00:27:53;;;;;;;6.80;3.55;;;;;;;15.86;83.90;100883.34;5077165;28;20397;-65
2021/06/05 00:30:20;;;;;;;6.40;3.47;;;;;;;15.76;83.63;100868.91;5076609;28;20401;-65
2021/06/05 00:32:45;;;;;;;5.90;3.40;;;;;;;15.88;83.84;100886.56;5082202;28;20080;-65
2021/06/05 00:35:11;;;;;;;5.30;3.38;;;;;;;15.86;83.34;100888.84;5076748;28;20098;-66
2021/06/05 00:37:36;;;;;;;5.05;3.28;;;;;;;15.82;83.45;100885.00;5077456;28;20084;-65
2021/06/05 00:40:03;;;;;;;7.18;4.00;;;;;;;15.79;83.23;100888.34;5077312;28;20025;-66
2021/06/05 00:42:28;;;;;;;9.40;3.80;;;;;;;15.78;83.35;100885.91;5075724;28;20055;-65
2021/06/05 00:44:54;;;;;;;6.32;3.80;;;;;;;15.78;83.24;100886.75;5079320;28;20103;-65
2021/06/05 00:47:19;;;;;;;6.88;3.55;;;;;;;15.62;83.50;100855.13;5076066;28;20566;-64
2021/06/05 00:49:45;;;;;;;8.57;3.78;;;;;;;15.81;83.60;100879.81;5075680;28;20444;-65
2021/06/05 00:52:11;;;;;;;7.25;3.50;;;;;;;15.61;83.20;100845.25;5059069;28;20025;-65
2021/06/05 00:54:37;;;;;;;7.82;3.67;;;;;;;15.85;83.36;100886.38;5077251;28;20078;-65
2021/06/05 00:57:05;;;;;;;7.45;3.90;;;;;;;15.88;83.30;100881.06;5076516;28;20024;-65
2021/06/05 00:59:31;;;;;;;6.22;3.85;;;;;;;15.91;83.22;100889.84;5076744;28;20039;-66
2021/06/05 01:01:56;;;;;;;9.00;4.20;;;;;;;15.89;83.16;100892.91;5077134;28;20029;-65
2021/06/05 01:04:22;;;;;;;10.65;4.00;;;;;;;15.88;82.95;100899.53;5076863;28;20385;-65
2021/06/05 01:07:25;;;;;;;6.50;4.18;;;;;;;15.88;83.03;100889.31;5076106;28;20031;-65
2021/06/05 01:10:29;;;;;;;7.32;4.57;;;;;;;15.85;82.97;100892.69;5068527;28;20048;-66
2021/06/05 01:13:07;;;;;;;10.10;4.47;;;;;;;15.82;83.29;100892.44;5075294;28;20040;-65
2021/06/05 01:15:39;;;;;;;9.02;4.70;;;;;;;15.83;83.07;100889.44;5064393;28;20078;-65
2021/06/05 01:18:27;;;;;;;9.60;4.32;;;;;;;15.81;82.87;100886.13;5069086;28;20021;-65
2021/06/05 01:21:08;;;;;;;5.85;4.50;;;;;;;15.79;82.77;100877.34;5089557;28;20119;-65
2021/06/05 01:24:15;;;;;;;7.93;4.47;;;;;;;15.68;82.73;100862.16;5063896;28;20373;-66
2021/06/05 01:26:50;;;;;;;10.40;4.53;;;;;;;15.60;82.62;100869.16;5075720;28;20020;-66
2021/06/05 01:29:35;;;;;;;9.27;4.10;;;;;;;15.66;82.71;100884.44;5069936;28;20079;-66
2021/06/05 01:32:05;;;;;;;7.85;3.72;;;;;;;15.59;82.49;100884.03;5073246;28;20116;-67
2021/06/05 01:34:35;;;;;;;7.95;4.68;;;;;;;15.55;82.33;100889.31;5078349;28;20051;-66
2021/06/05 01:37:02;;;;;;;7.82;4.13;;;;;;;15.52;82.39;100892.66;5076547;28;20108;-66
2021/06/05 01:39:33;;;;;;;8.52;4.10;;;;;;;15.48;81.96;100891.63;5076392;28;20043;-65
2021/06/05 01:42:04;;;;;;;9.02;4.07;;;;;;;15.37;82.07;100879.19;5076442;28;20027;-65
2021/06/05 01:44:33;;;;;;;7.38;4.30;;;;;;;15.53;82.19;100887.97;5074469;28;20028;-65
2021/06/05 01:46:59;;;;;;;7.38;4.20;;;;;;;15.56;82.13;100888.19;5067273;28;20035;-65
2021/06/05 01:49:25;;;;;;;10.98;4.50;;;;;;;15.58;81.76;100888.72;5075185;28;20028;-65
2021/06/05 01:51:55;;;;;;;8.73;4.70;;;;;;;15.48;81.46;100874.34;5075394;28;20024;-65
2021/06/05 01:54:27;;;;;;;10.65;4.35;;;;;;;15.61;81.50;100886.50;5075206;28;20025;-65
2021/06/05 01:56:58;;;;;;;8.35;4.10;;;;;;;15.50;81.49;100870.16;5076235;28;20025;-65
2021/06/05 01:59:24;;;;;;;7.75;4.22;;;;;;;15.62;81.26;100883.44;5063137;28;20016;-65
2021/06/05 02:01:50;;;;;;;10.45;4.57;;;;;;;15.63;81.30;100886.97;5076119;28;20044;-65
2021/06/05 02:04:16;;;;;;;9.43;4.07;;;;;;;15.62;80.98;100886.19;5075507;28;20024;-67
2021/06/05 02:06:46;;;;;;;7.25;4.75;;;;;;;15.60;81.23;100882.91;5072129;28;20029;-65
2021/06/05 02:09:13;;;;;;;10.13;4.68;;;;;;;15.67;81.00;100885.28;5070019;28;20075;-66
2021/06/05 02:11:45;;;;;;;8.90;4.28;;;;;;;15.56;80.63;100873.66;5068222;28;20032;-65
2021/06/05 02:14:15;;;;;;;10.77;3.97;;;;;;;15.67;80.76;100885.28;5075077;28;20024;-65
2021/06/05 02:16:48;;;;;;;6.50;4.40;;;;;;;15.61;80.63;100875.50;5074794;28;20570;-66
2021/06/05 02:19:19;;;;;;;11.88;4.57;;;;;;;15.58;80.60;100880.47;5073953;28;20021;-65
2021/06/05 02:21:47;;;;;;;7.60;3.92;;;;;;;15.55;80.39;100881.06;5076132;28;20024;-65
2021/06/05 02:24:16;;;;;;;9.63;4.43;;;;;;;15.52;80.40;100881.69;5075013;28;20043;-65
2021/06/05 02:26:42;;;;;;;7.50;4.25;;;;;;;15.51;80.52;100874.53;5061536;28;20051;-65
2021/06/05 02:29:11;;;;;;;7.07;4.43;;;;;;;15.51;80.48;100880.03;5070378;28;20388;-64
2021/06/05 02:31:38;;;;;;;10.55;4.50;;;;;;;15.49;80.44;100895.22;5066265;28;20058;-65
2021/06/05 02:34:07;;;;;;;11.02;4.43;;;;;;;15.29;80.34;100874.38;5079437;28;20052;-65
2021/06/05 02:36:38;;;;;;;9.05;4.30;;;;;;;15.41;80.20;100891.19;5074340;28;20115;-65
2021/06/05 02:39:05;;;;;;;6.03;4.30;;;;;;;15.32;80.01;100887.47;5074634;28;20067;-65
2021/06/05 02:41:31;;;;;;;10.02;4.80;;;;;;;15.31;80.20;100885.84;5062404;28;20028;-66
2021/06/05 02:43:56;;;;;;;7.20;4.05;;;;;;;15.33;80.18;100894.63;5074409;28;20020;-65
2021/06/05 02:46:28;;;;;;;9.68;4.47;;;;;;;15.28;80.16;100890.00;5073027;28;20024;-65
2021/06/05 02:49:00;;;;;;;7.13;4.43;;;;;;;15.29;80.06;100896.34;5066948;28;20055;-65
2021/06/05 02:51:33;;;;;;;6.80;4.57;;;;;;;15.30;80.06;100897.94;5063431;28;20032;-65
2021/06/05 02:53:59;;;;;;;12.98;4.35;;;;;;;15.30;79.98;100896.03;5074559;28;20524;-65
2021/06/05 02:56:25;;;;;;;11.85;4.90;;;;;;;15.29;80.03;100885.34;5067621;28;20393;-65
2021/06/05 02:58:51;;;;;;;7.97;4.13;;;;;;;15.34;79.92;100888.00;5059701;28;20032;-65
2021/06/05 03:01:17;;;;;;;4.90;4.20;;;;;;;15.34;79.91;100891.56;5063687;28;20024;-66
2021/06/05 03:03:43;;;;;;;9.15;4.28;;;;;;;15.34;79.89;100890.75;5070899;28;20025;-65
2021/06/05 03:06:09;;;;;;;7.50;4.13;;;;;;;15.04;79.93;100841.50;5069013;28;20082;-65
2021/06/05 03:08:38;;;;;;;9.82;4.07;;;;;;;15.33;79.69;100903.66;5074049;28;20089;-65
2021/06/05 03:11:10;;;;;;;8.63;4.35;;;;;;;15.34;79.69;100908.03;5064778;28;20115;-65
2021/06/05 03:13:36;;;;;;;10.35;4.90;;;;;;;15.33;79.88;100897.38;5071690;28;20016;-64
2021/06/05 03:16:03;;;;;;;8.73;4.65;;;;;;;15.24;79.63;100897.22;5073568;28;20056;-65
2021/06/05 03:18:29;;;;;;;10.98;4.80;;;;;;;15.19;79.53;100891.81;5065106;28;20029;-65
2021/06/05 03:20:56;;;;;;;8.63;4.90;;;;;;;15.22;79.74;100905.75;5088183;28;20477;-65
2021/06/05 03:23:25;;;;;;;10.15;4.90;;;;;;;15.16;79.57;100906.94;5076982;28;20115;-65
2021/06/05 03:25:51;;;;;;;8.27;4.97;;;;;;;15.13;79.78;100902.03;5073560;28;20029;-65
2021/06/05 03:28:19;;;;;;;12.25;5.88;;;;;;;15.15;79.83;100899.81;5065305;28;20420;-67
2021/06/05 03:30:45;;;;;;;10.05;5.75;;;;;;;15.11;79.79;100890.56;5073879;28;20060;-64
2021/06/05 03:33:10;;;;;;;11.13;5.75;;;;;;;15.14;79.87;100889.13;5082604;28;20020;-65
2021/06/05 03:35:37;;;;;;;8.55;5.20;;;;;;;15.14;79.67;100889.94;5077612;28;20606;-65
2021/06/05 03:38:05;;;;;;;9.40;5.68;;;;;;;15.11;79.62;100885.06;5077374;28;20467;-65
2021/06/05 03:40:32;;;;;;;10.85;5.78;;;;;;;15.11;79.65;100888.63;5078265;28;20020;-66
2021/06/05 03:42:58;;;;;;;10.38;5.75;;;;;;;15.10;79.44;100886.16;5078159;28;20027;-65
2021/06/05 03:45:24;;;;;;;11.55;5.75;;;;;;;15.04;79.34;100885.44;5083942;28;20280;-65
2021/06/05 03:47:50;;;;;;;9.70;5.50;;;;;;;15.02;79.33;100878.59;5079490;28;20081;-65
2021/06/05 03:50:21;;;;;;;13.45;5.53;;;;;;;14.81;79.11;100856.09;5068834;28;20034;-65
2021/06/05 03:52:46;;;;;;;11.50;5.82;;;;;;;14.84;79.11;100880.22;5076772;28;20034;-67
2021/06/05 03:55:13;;;;;;;12.50;5.43;;;;;;;14.85;79.22;100885.41;5076396;28;20028;-65
2021/06/05 03:57:39;;;;;;;13.48;6.30;;;;;;;14.81;79.28;100883.56;5076030;28;20504;-65
2021/06/05 04:00:08;;;;;;;12.73;6.07;;;;;;;14.78;79.32;100877.53;5076613;28;20382;-65
2021/06/05 04:02:34;;;;;;;11.63;6.38;;;;;;;14.78;79.29;100880.28;5077630;28;20021;-65
2021/06/05 04:04:59;;;;;;;10.43;5.85;;;;;;;14.47;79.03;100834.00;5077422;28;20082;-64
2021/06/05 04:07:25;;;;;;;15.00;6.47;;;;;;;14.75;79.12;100869.09;5077583;28;20032;-65
2021/06/05 04:09:50;;;;;;;9.93;5.68;;;;;;;14.74;79.03;100878.41;5067110;28;20029;-65
2021/06/05 04:12:16;;;;;;;10.13;5.75;;;;;;;14.74;79.01;100886.66;5073644;28;20169;-66
2021/06/05 04:14:42;;;;;;;13.45;6.25;;;;;;;14.74;79.04;100884.75;5070354;28;20035;-65
2021/06/05 04:17:09;;;;;;;7.68;5.53;;;;;;;14.60;78.93;100865.41;5063559;28;20024;-65
2021/06/05 04:19:35;;;;;;;8.23;5.50;;;;;;;14.73;78.78;100896.00;5085398;28;20069;-65
2021/06/05 04:22:02;;;;;;;9.23;5.90;;;;;;;14.63;78.56;100883.19;5083857;28;20029;-66
2021/06/05 04:24:28;;;;;;;9.93;5.32;;;;;;;14.70;78.60;100902.09;5072641;28;20057;-65
2021/06/05 04:26:53;;;;;;;10.05;5.43;;;;;;;14.72;78.57;100910.84;5077437;28;20178;-65
2021/06/05 04:29:19;;;;;;;9.65;5.97;;;;;;;14.50;78.36;100871.00;5068948;28;20088;-65
2021/06/05 04:31:45;;;;;;;8.75;5.43;;;;;;;14.74;78.48;100906.72;5077403;28;20141;-65
2021/06/05 04:34:10;;;;;;;8.27;5.20;;;;;;;14.78;78.30;100905.00;5079886;28;20068;-65
2021/06/05 04:36:37;;;;;;;11.98;5.25;;;;;;;14.66;78.34;100884.53;5062246;28;20039;-65
2021/06/05 04:39:03;;;;;;;9.02;5.47;;;;;;;14.81;78.25;100902.78;5061044;28;20028;-65
2021/06/05 04:41:29;;;;;;;7.55;5.10;;;;;;;14.81;78.46;100902.78;5076931;28;20051;-65
2021/06/05 04:43:54;;;;;;;8.82;5.43;;;;;;;14.85;78.04;100904.63;5075456;28;20024;-65
2021/06/05 04:46:20;;;;;;;8.52;5.30;;;;;;;14.78;78.11;100893.22;5085082;28;20076;-65
2021/06/05 04:48:46;;;;;;;8.25;5.22;;;;;;;14.87;78.00;100913.41;5077149;28;20031;-66
2021/06/05 04:51:13;;;;;;;9.40;5.63;;;;;;;14.84;78.07;100907.66;5071052;28;20077;-65
2021/06/05 04:53:39;;;;;;;6.47;4.82;;;;;;;14.85;77.84;100915.63;5062428;28;20070;-65
2021/06/05 04:56:06;;;;;;;7.90;5.03;;;;;;;14.87;77.83;100913.41;5075234;28;20414;-65
2021/06/05 04:58:32;;;;;;;10.05;4.55;;;;;;;14.90;77.97;100917.47;5073102;28;20085;-66
2021/06/05 05:00:59;;;;;;;7.93;5.22;;;;;;;14.93;77.83;100917.72;5074796;28;20378;-65
2021/06/05 05:03:29;;;;;;;7.43;4.93;;;;;;;14.96;77.94;100919.03;5072799;28;20107;-65
2021/06/05 05:05:59;;;;;;;14.63;5.78;;;;;;;14.94;77.90;100922.09;5064128;28;20440;-65
2021/06/05 05:08:25;;;;;;;8.95;5.30;;;;;;;14.98;77.69;100929.72;5068336;28;20123;-65
2021/06/05 05:10:52;;;;;;;6.82;5.38;;;;;;;14.98;77.72;100930.56;5069990;28;20028;-65
2021/06/05 05:13:28;;;;;;;11.07;5.20;;;;;;;14.98;77.63;100927.81;5075787;28;20125;-66
2021/06/05 05:15:56;;;;;;;10.38;5.60;;;;;;;14.98;77.47;100936.03;5075611;28;20108;-65
2021/06/05 05:18:22;;;;;;;10.13;5.25;;;;;;;14.99;77.47;100939.59;5076412;28;20032;-65
2021/06/05 05:20:50;;;;;;;11.50;5.20;;;;;;;14.99;77.52;100942.34;5078975;28;20047;-65
2021/06/05 05:23:16;;;;;;;8.77;4.75;;;;;;;15.00;77.45;100944.78;5076705;28;20107;-65
2021/06/05 05:25:43;;;;;;;10.55;5.43;;;;;;;15.00;77.28;100941.22;5075481;28;20043;-65
2021/06/05 05:28:11;;;;;;;13.02;5.38;;;;;;;15.03;77.26;100944.22;5074410;28;20017;-65
2021/06/05 05:30:43;;;;;;;8.45;5.32;;;;;;;14.97;77.14;100939.06;5061071;28;20017;-65
2021/06/05 05:33:09;;;;;;;8.10;5.03;;;;;;;15.04;77.08;100945.03;5075665;28;20024;-65
2021/06/05 05:35:35;;;;;;;8.30;5.60;;;;;;;15.12;77.27;100944.38;5075346;28;20115;-65
2021/06/05 05:38:04;;;;;;;8.30;5.10;;;;;;;15.15;77.22;100943.75;5074196;28;20036;-67
2021/06/05 05:40:30;;;;;;;9.63;5.32;;;;;;;15.21;77.26;100939.03;5075652;28;20405;-65
2021/06/05 05:42:56;;;;;;;7.70;5.07;;;;;;;15.26;77.37;100926.03;5073409;28;20056;-65
2021/06/05 05:45:23;;;;;;;12.25;5.18;;;;;;;15.35;77.35;100936.34;5079347;28;20039;-65
2021/06/05 05:47:49;;;;;;;10.23;5.35;;;;;;;15.42;77.04;100932.09;5076841;28;20039;-65
2021/06/05 05:50:18;;;;;;;9.73;5.35;;;;;;;15.53;77.09;100937.44;5075914;28;20028;-65
2021/06/05 05:52:44;;;;;;;13.40;5.40;;;;;;;15.48;76.59;100921.03;5074540;28;20028;-65
2021/06/05 05:55:10;;;;;;;8.43;5.05;;;;;;;15.56;76.07;100934.13;5074774;28;20043;-65
2021/06/05 05:57:36;;;;;;;9.95;5.55;;;;;;;15.54;76.24;100937.13;5065753;28;20120;-65
2021/06/05 06:00:06;;;;;;;10.63;5.10;;;;;;;15.58;76.12;100945.59;5061350;28;20436;-66
2021/06/05 06:02:31;;;;;;;8.40;5.68;;;;;;;15.61;75.90;100946.97;5064914;28;20042;-66
2021/06/05 06:04:57;;;;;;;12.90;5.75;;;;;;;15.57;76.07;100957.75;5075649;28;20032;-65
2021/06/05 06:07:22;;;;;;;11.73;5.75;;;;;;;15.55;75.72;100960.75;5074339;28;20042;-65
2021/06/05 06:09:48;;;;;;;10.40;6.07;;;;;;;15.46;75.87;100954.31;5065151;28;20025;-65
2021/06/05 06:12:13;;;;;;;8.95;6.20;;;;;;;15.46;76.07;100957.06;5074810;28;20021;-65
2021/06/05 06:14:38;;;;;;;11.07;5.90;;;;;;;15.27;76.16;100916.69;5074433;28;20032;-65
2021/06/05 06:17:04;;;;;;;7.70;5.78;;;;;;;15.51;76.08;100954.25;5075431;28;20425;-65
2021/06/05 06:19:29;;;;;;;13.00;6.43;;;;;;;15.42;75.93;100934.03;5083491;28;20028;-65
2021/06/05 06:21:55;;;;;;;9.50;5.82;;;;;;;15.65;75.76;100968.06;5080794;28;20107;-65
2021/06/05 06:24:20;;;;;;;10.00;5.80;;;;;;;15.58;75.52;100962.09;5075051;28;20141;-65
2021/06/05 06:26:46;;;;;;;9.85;5.85;;;;;;;15.52;75.35;100955.06;5066874;28;20370;-66
2021/06/05 06:29:19;;;;;;;7.70;6.20;;;;;;;15.54;75.65;100961.88;5070334;28;20126;-65
2021/06/05 06:31:47;;;;;;;10.02;5.82;;;;;;;15.58;75.72;100967.59;5069748;28;20412;-65
2021/06/05 06:34:15;;;;;;;11.65;5.63;;;;;;;15.51;75.67;100939.66;5080407;28;20124;-65
2021/06/05 06:36:42;;;;;;;13.07;6.00;;;;;;;15.69;75.39;100955.31;5073455;28;20381;-66
2021/06/05 06:39:10;;;;;;;11.27;6.10;;;;;;;15.57;75.36;100924.75;5074791;28;20024;-65
2021/06/05 06:41:36;;;;;;;11.80;5.72;;;;;;;15.77;75.22;100953.84;5065780;28;20051;-65
2021/06/05 06:44:04;;;;;;;9.25;5.15;;;;;;;15.79;75.29;100948.84;5070728;28;20064;-66
2021/06/05 06:46:34;;;;;;;11.52;5.20;;;;;;;15.86;75.01;100965.81;5082922;28;20033;-65
2021/06/05 06:49:01;;;;;;;9.13;5.38;;;;;;;15.88;74.61;100962.75;5066184;28;20409;-65
2021/06/05 06:51:29;;;;;;;8.25;5.15;;;;;;;15.85;74.57;100963.34;5073614;28;20036;-65
2021/06/05 06:53:54;;;;;;;9.55;5.20;;;;;;;15.81;74.50;100963.09;5074014;28;20039;-65
2021/06/05 06:56:20;;;;;;;11.88;5.60;;;;;;;15.88;74.48;100971.81;5074599;28;20029;-65
2021/06/05 06:58:47;;;;;;;11.60;5.10;;;;;;;15.96;74.54;100975.00;5068319;28;20401;-66
2021/06/05 07:01:13;;;;;;;7.43;4.95;;;;;;;16.01;74.06;100972.19;5063448;28;20029;-65
2021/06/05 07:03:39;;;;;;;5.55;4.40;;;;;;;15.95;73.87;100957.69;5072823;28;20040;-64
2021/06/05 07:06:05;;;;;;;9.20;4.70;;;;;;;16.05;73.88;100973.19;5070639;28;20040;-65
2021/06/05 07:08:33;;;;;;;8.15;4.63;;;;;;;16.07;73.50;100970.97;5070755;28;20043;-66
2021/06/05 07:11:04;;;;;;;8.98;4.85;;;;;;;16.10;73.40;100977.78;5056610;28;20044;-65
2021/06/05 07:13:29;;;;;;;6.53;4.65;;;;;;;16.11;73.55;100983.00;5071558;28;20082;-64
2021/06/05 07:15:56;;;;;;;8.50;4.78;;;;;;;16.11;73.03;100984.94;5068881;28;20024;-65
2021/06/05 07:18:25;;;;;;;6.88;4.63;;;;;;;16.13;73.12;100969.75;5074404;28;20036;-65
2021/06/05 07:20:51;;;;;;;9.65;5.38;;;;;;;16.18;73.07;100966.94;5070747;28;20020;-65
2021/06/05 07:23:23;;;;;;;9.77;5.60;;;;;;;16.19;73.18;100968.56;5059834;28;20055;-65
2021/06/05 07:25:50;;;;;;;8.57;4.22;;;;;;;16.19;72.82;100957.56;5074270;28;20078;-65
2021/06/05 07:28:23;;;;;;;9.77;3.92;;;;;;;16.24;72.56;100955.81;5067728;28;20557;-65
2021/06/05 07:30:49;;;;;;;6.53;3.97;;;;;;;16.30;72.44;100951.84;5070292;28;20040;-65
2021/06/05 07:33:15;;;;;;;6.07;4.00;;;;;;;16.37;72.31;100946.75;5071105;28;20021;-65
2021/06/05 07:35:41;;;;;;;8.10;4.53;;;;;;;16.41;71.92;100944.22;5055519;28;20033;-65
2021/06/05 07:38:07;;;;;;;7.03;4.07;;;;;;;16.42;71.66;100941.16;5061731;28;20040;-65
2021/06/05 07:40:34;;;;;;;9.25;4.20;;;;;;;16.41;71.65;100952.47;5066407;28;20028;-65
2021/06/05 07:43:00;;;;;;;7.40;4.07;;;;;;;16.43;71.63;100964.81;5069985;28;20029;-65
2021/06/05 07:45:26;;;;;;;8.85;4.28;;;;;;;16.42;71.38;100956.84;5074734;28;20093;-65
2021/06/05 07:47:52;;;;;;;6.15;4.15;;;;;;;16.37;71.08;100963.25;5074472;28;20389;-65
2021/06/05 07:50:18;;;;;;;8.80;4.18;;;;;;;16.34;71.22;100947.38;5074151;28;20063;-66
2021/06/05 07:52:43;;;;;;;15.05;5.43;;;;;;;16.36;71.38;100936.88;5072995;28;20094;-65
2021/06/05 07:55:10;;;;;;;17.92;13.23;;;;;;;16.40;71.57;100939.84;5065874;28;20028;-65
2021/06/05 07:57:36;;;;;;;9.40;4.35;;;;;;;16.51;72.03;100935.75;5067135;28;20025;-65
2021/06/05 08:00:03;;;;;;;7.53;4.15;;;;;;;16.60;71.05;100930.38;5073935;28;20070;-67
2021/06/05 08:02:29;;;;;;;6.22;3.88;;;;;;;16.65;70.81;100936.56;5074156;28;20020;-65
2021/06/05 08:04:54;;;;;;;8.13;3.15;;;;;;;16.70;70.56;100941.16;5068781;28;20043;-65
2021/06/05 08:07:20;;;;;;;4.05;2.70;;;;;;;16.70;69.38;100945.84;5072736;28;20121;-65
2021/06/05 08:09:45;;;;;;;4.85;2.35;;;;;;;16.65;68.81;100952.28;5071335;28;20030;-66
2021/06/05 08:12:11;;;;;;;11.48;3.03;;;;;;;16.68;68.59;100952.47;5077780;28;20495;-65
2021/06/05 08:14:37;;;;;;;8.05;2.97;;;;;;;16.71;68.36;100942.78;5066830;28;20028;-65
2021/06/05 08:17:03;;;;;;;5.40;2.60;;;;;;;16.79;68.17;100933.81;5066058;28;20128;-66
2021/06/05 08:19:28;;;;;;;7.03;2.60;;;;;;;16.91;68.30;100930.53;5078452;28;20074;-66
2021/06/05 08:21:54;;;;;;;4.57;2.53;;;;;;;17.04;68.49;100923.38;5090103;28;20028;-65
2021/06/05 08:24:20;;;;;;;4.60;2.70;;;;;;;17.21;68.52;100920.00;5076886;28;20101;-66
2021/06/05 08:26:46;;;;;;;4.82;2.63;;;;;;;17.25;68.38;100889.88;5069785;28;20036;-67
2021/06/05 08:29:12;;;;;;;3.92;2.45;;;;;;;17.43;67.99;100897.16;5071656;28;20409;-65
2021/06/05 08:31:39;;;;;;;4.50;2.63;;;;;;;17.62;67.07;100896.97;5076351;28;20032;-65
2021/06/05 08:34:06;;;;;;;5.40;2.50;;;;;;;17.61;66.82;100891.75;5076492;28;20094;-65
2021/06/05 08:36:33;;;;;;;3.38;2.70;;;;;;;17.74;67.14;100904.66;5077408;28;20036;-68
2021/06/05 08:38:59;;;;;;;8.05;3.20;;;;;;;17.82;67.18;100896.75;5073714;28;20036;-65
2021/06/05 08:41:51;;;;;;;6.32;2.60;;;;;;;17.90;66.23;100890.47;5076035;28;20149;-65
2021/06/05 08:44:24;;;;;;;6.00;3.03;;;;;;;17.94;66.94;100892.28;5066974;28;20020;-67
2021/06/05 08:47:07;;;;;;;6.10;3.42;;;;;;;18.05;66.92;100887.31;5079241;28;20467;-65
2021/06/05 08:49:40;;;;;;;5.78;2.08;;;;;;;18.14;66.39;100884.59;5075900;28;20048;-65
2021/06/05 08:52:11;;;;;;;11.30;2.70;;;;;;;18.15;65.89;100875.19;5069374;28;20628;-65
2021/06/05 08:54:57;;;;;;;4.65;2.08;;;;;;;18.22;65.35;100883.00;5074023;28;20021;-65
2021/06/05 08:57:37;;;;;;;5.90;2.10;;;;;;;18.01;64.42;100874.47;5077416;28;20028;-65
2021/06/05 09:00:40;;;;;;;4.85;2.28;;;;;;;18.03;64.45;100889.59;5072467;28;20039;-65
2021/06/05 09:03:10;;;;;;;4.82;2.10;;;;;;;18.01;64.16;100888.28;5076299;28;20560;-65
2021/06/05 09:05:39;;;;;;;4.63;2.25;;;;;;;18.00;64.48;100883.88;5077306;28;20485;-65
2021/06/05 09:08:05;;;;;;;4.35;2.00;;;;;;;17.90;64.11;100854.59;5076141;28;20052;-65
2021/06/05 09:10:32;;;;;;;2.97;1.73;;;;;;;18.12;64.35;100866.72;5073719;28;20024;-66
2021/06/05 09:12:57;;;;;;;7.40;2.40;;;;;;;18.42;63.84;100886.34;5077172;28;20017;-65
2021/06/05 09:15:33;;;;;;;3.58;2.05;;;;;;;18.56;63.63;100887.81;5076846;28;20038;-66
2021/06/05 09:18:01;;;;;;;6.32;2.35;;;;;;;18.69;62.84;100891.59;5069528;28;20036;-65
2021/06/05 09:20:38;;;;;;;4.10;2.20;;;;;;;18.77;62.20;100902.97;5077878;28;20090;-65
2021/06/05 09:23:49;;;;;;;3.17;2.10;;;;;;;18.83;62.29;100899.75;5085517;28;20107;-65
2021/06/05 09:26:17;;;;;;;4.93;2.28;;;;;;;18.81;61.88;100915.03;5065934;28;20060;-65
2021/06/05 09:28:43;;;;;;;3.90;2.13;;;;;;;18.77;61.82;100902.97;5076684;28;20385;-65
2021/06/05 09:31:16;;;;;;;3.70;2.40;;;;;;;18.68;61.74;100914.03;5066291;28;20416;-65
2021/06/05 09:33:42;;;;;;;5.03;2.35;;;;;;;18.59;62.03;100921.47;5082196;28;20394;-67
2021/06/05 09:36:29;;;;;;;5.28;2.15;;;;;;;18.48;60.97;100927.28;5075297;28;20474;-65
2021/06/05 09:38:58;;;;;;;4.90;2.45;;;;;;;18.47;62.29;100922.09;5068235;28;20398;-65
2021/06/05 09:41:29;;;;;;;5.85;2.10;;;;;;;18.54;62.15;100917.72;5073340;28;20024;-65
2021/06/05 09:44:12;;;;;;;4.13;2.38;;;;;;;18.64;60.94;100905.56;5076060;28;20017;-65
2021/06/05 09:46:38;;;;;;;3.67;2.40;;;;;;;18.69;61.05;100888.84;5080920;28;20232;-65
2021/06/05 09:49:24;;;;;;;5.05;2.38;;;;;;;18.79;60.70;100897.97;5076210;28;20078;-65
2021/06/05 09:52:10;;;;;;;5.30;2.47;;;;;;;18.80;60.67;100894.06;5069335;28;20024;-64
2021/06/05 09:54:40;;;;;;;7.03;2.35;;;;;;;18.91;61.04;100895.38;5076022;28;20057;-64
2021/06/05 09:57:29;;;;;;;2.53;2.00;;;;;;;18.98;58.89;100901.28;5076208;28;20028;-64
2021/06/05 10:00:14;;;;;;;9.88;2.55;;;;;;;18.93;59.77;100895.88;5075091;28;20032;-64
2021/06/05 10:02:44;;;;;;;4.60;2.17;;;;;;;18.89;59.92;100894.88;5068274;28;20078;-64
2021/06/05 10:05:25;;;;;;;4.28;2.15;;;;;;;18.92;59.61;100888.75;5068787;28;20094;-64
2021/06/05 10:07:52;;;;;;;4.45;2.28;;;;;;;18.95;59.79;100892.81;5075241;28;20025;-64
2021/06/05 10:10:17;;;;;;;3.15;1.98;;;;;;;19.01;59.58;100894.28;5063679;28;20024;-65
2021/06/05 10:12:44;;;;;;;2.55;1.80;;;;;;;18.96;59.46;100869.59;5074500;28;20025;-65
2021/06/05 10:15:15;;;;;;;5.25;1.90;;;;;;;18.99;59.15;100874.44;5066861;28;20044;-64
2021/06/05 10:18:00;;;;;;;5.03;1.83;;;;;;;18.94;58.92;100850.53;5066137;28;20046;-65
2021/06/05 10:20:33;;;;;;;4.35;2.33;;;;;;;19.24;59.12;100889.41;5085623;28;20016;-65
2021/06/05 10:22:59;;;;;;;3.80;1.95;;;;;;;19.27;58.70;100893.47;5080805;28;20051;-65
2021/06/05 10:25:45;;;;;;;2.60;2.28;;;;;;;19.10;58.42;100861.94;5074160;28;20032;-64
2021/06/05 10:28:15;;;;;;;5.90;2.35;;;;;;;19.26;58.42;100889.88;5066164;28;20035;-65
2021/06/05 10:30:47;;;;;;;4.03;2.70;;;;;;;19.28;58.74;100887.63;5075596;28;20485;-65
2021/06/05 10:33:26;;;;;;;4.75;2.33;;;;;;;19.35;59.31;100876.88;5076288;28;20394;-65
2021/06/05 10:35:55;;;;;;;6.75;3.78;;;;;;;19.40;58.64;100873.13;5058908;28;20040;-64
2021/06/05 10:38:42;;;;;;;3.80;1.77;;;;;;;19.44;58.19;100878.81;5066641;28;20029;-65
2021/06/05 10:41:14;;;;;;;36.88;23.75;;;;;;;19.48;58.38;100883.38;5059193;28;20484;-65
2021/06/05 10:43:44;;;;;;;4.47;3.17;;;;;;;19.55;58.01;100882.88;5075399;28;20016;-65
2021/06/05 10:46:20;;;;;;;3.30;2.35;;;;;;;19.67;58.23;100871.94;5082044;28;20040;-65
2021/06/05 10:48:47;;;;;;;;;;;;;;;19.75;58.86;100877.81;5074808;28;20054;-67
2021/06/05 10:51:15;;;;;;;4.05;2.38;;;;;;;19.82;58.77;100867.03;5073095;28;19979;-65
2021/06/05 10:53:52;;;;;;;11.55;6.57;;;;;;;19.89;58.07;100861.84;5067592;28;20024;-67
2021/06/05 10:56:21;;;;;;;6.88;2.72;;;;;;;19.93;57.96;100868.31;5075206;28;20043;-65
2021/06/05 10:58:51;;;;;;;10.57;7.95;;;;;;;19.92;57.84;100865.91;5075327;28;20063;-65
2021/06/05 11:01:28;;;;;;;42.03;34.30;;;;;;;19.91;57.57;100865.09;5075255;28;20037;-67
2021/06/05 11:03:59;;;;;;;4.55;2.33;;;;;;;19.75;57.06;100841.84;5075213;28;20024;-65
2021/06/05 11:06:29;;;;;;;7.25;4.78;;;;;;;19.78;57.06;100855.00;5074670;28;20507;-65
2021/06/05 11:08:59;;;;;;;6.05;3.00;;;;;;;19.76;57.16;100851.75;5071273;28;20068;-65
2021/06/05 11:11:30;;;;;;;12.63;10.02;;;;;;;19.72;57.02;100843.28;5068871;28;20047;-65
2021/06/05 11:13:56;;;;;;;33.67;14.40;;;;;;;19.49;57.60;100809.53;5062447;28;20112;-64
2021/06/05 11:16:42;;;;;;;4.30;1.77;;;;;;;19.23;56.83;100784.69;5074963;28;20060;-65
2021/06/05 11:19:25;;;;;;;;;;;;;;;19.54;56.63;100837.00;5072492;28;20024;-64
2021/06/05 11:22:03;;;;;;;4.50;1.98;;;;;;;19.48;56.67;100832.78;5076807;28;19955;-65
2021/06/05 11:24:29;;;;;;;2.65;1.52;;;;;;;19.47;56.48;100850.53;5070472;28;20111;-65
2021/06/05 11:26:57;;;;;;;3.85;2.00;;;;;;;19.48;56.14;100849.38;5073408;28;20071;-65
2021/06/05 11:29:29;;;;;;;3.33;1.88;;;;;;;19.49;55.45;100851.00;5073345;28;20044;-65
2021/06/05 11:32:07;;;;;;;6.30;1.55;;;;;;;19.52;56.07;100847.56;5062800;28;20590;-65
2021/06/05 11:34:32;;;;;;;4.13;1.63;;;;;;;19.69;56.62;100832.06;5076757;28;20056;-65